createdAt,value
2018-03-07T00:00:09.377Z,26.90
2018-03-07T00:02:37.108Z,27.90
2018-03-07T00:05:04.833Z,26.63
2018-03-07T00:07:32.443Z,29.37
2018-03-07T00:10:00.061Z,27.00
2018-03-07T00:12:27.694Z,25.90
2018-03-07T00:14:55.266Z,27.10
2018-03-07T00:17:22.832Z,25.20
2018-03-07T00:19:50.441Z,25.00
2018-03-07T00:22:18.025Z,28.23
2018-03-07T00:24:45.608Z,27.70
2018-03-07T00:27:13.234Z,26.53
2018-03-07T00:29:40.835Z,26.70
2018-03-07T00:32:08.468Z,28.33
2018-03-07T00:34:36.064Z,27.97
2018-03-07T00:37:03.651Z,25.07
2018-03-07T00:39:31.273Z,28.47
2018-03-07T00:41:58.822Z,26.67
2018-03-07T00:44:26.692Z,24.03
2018-03-07T00:46:54.330Z,25.77
2018-03-07T00:49:21.911Z,26.20
2018-03-07T00:51:49.532Z,25.10
2018-03-07T00:54:17.153Z,27.43
2018-03-07T00:56:44.740Z,29.17
2018-03-07T00:59:12.294Z,27.53
2018-03-07T01:01:39.906Z,29.30
2018-03-07T01:04:07.551Z,31.80
2018-03-07T01:06:35.111Z,30.43
2018-03-07T01:09:02.997Z,31.40
2018-03-07T01:11:30.824Z,30.50
2018-03-07T01:13:58.381Z,29.00
2018-03-07T01:16:25.994Z,31.60
2018-03-07T01:18:53.601Z,31.87
2018-03-07T01:21:21.241Z,31.90
2018-03-07T01:23:48.838Z,31.97
2018-03-07T01:26:16.439Z,29.70
2018-03-07T01:28:44.046Z,28.80
2018-03-07T01:31:11.681Z,32.07
2018-03-07T01:33:39.294Z,28.77
2018-03-07T01:36:06.935Z,32.27
2018-03-07T01:38:34.513Z,32.10
2018-03-07T01:41:02.109Z,31.63
2018-03-07T01:43:29.731Z,31.10
2018-03-07T01:45:57.337Z,31.50
2018-03-07T01:48:24.923Z,31.80
2018-03-07T01:50:52.562Z,29.67
2018-03-07T01:53:20.394Z,30.97
2018-03-07T01:55:54.274Z,30.20
2018-03-07T01:58:21.892Z,30.47
2018-03-07T02:00:49.469Z,28.53
2018-03-07T02:03:17.103Z,30.63
2018-03-07T02:05:46.654Z,31.90
2018-03-07T02:08:14.509Z,30.40
2018-03-07T02:10:42.081Z,30.23
2018-03-07T02:13:09.695Z,33.60
2018-03-07T02:15:37.811Z,30.53
2018-03-07T02:18:05.403Z,32.10
2018-03-07T02:20:32.991Z,31.07
2018-03-07T02:23:00.602Z,31.63
2018-03-07T02:25:28.170Z,33.50
2018-03-07T02:27:55.746Z,30.53
2018-03-07T02:30:23.363Z,31.60
2018-03-07T02:32:51.037Z,33.80
2018-03-07T02:35:18.601Z,32.13
2018-03-07T02:37:46.261Z,32.97
2018-03-07T02:40:13.846Z,29.97
2018-03-07T02:42:41.400Z,33.20
2018-03-07T02:45:09.054Z,34.60
2018-03-07T02:47:36.650Z,34.60
2018-03-07T02:50:04.291Z,37.30
2018-03-07T02:52:31.880Z,34.30
2018-03-07T02:54:59.493Z,36.07
2018-03-07T02:57:27.088Z,37.87
2018-03-07T02:59:54.675Z,36.30
2018-03-07T03:02:22.319Z,34.13
2018-03-07T03:04:50.195Z,36.40
2018-03-07T03:07:17.783Z,36.83
2018-03-07T03:09:45.398Z,37.20
2018-03-07T03:12:13.204Z,36.60
2018-03-07T03:14:40.781Z,37.47
2018-03-07T03:17:08.428Z,38.40
2018-03-07T03:19:36.015Z,37.80
2018-03-07T03:22:03.715Z,38.90
2018-03-07T03:24:31.306Z,38.33
2018-03-07T03:26:58.897Z,37.80
2018-03-07T03:29:26.508Z,38.13
2018-03-07T03:31:54.162Z,36.10
2018-03-07T03:34:21.735Z,42.30
2018-03-07T03:36:49.416Z,39.40
2018-03-07T03:39:17.008Z,38.00
2018-03-07T03:41:44.596Z,34.73
2018-03-07T03:44:12.229Z,34.00
2018-03-07T03:46:39.862Z,33.03
2018-03-07T03:49:07.463Z,33.37
2018-03-07T03:51:35.035Z,32.80
2018-03-07T03:54:02.709Z,32.17
2018-03-07T03:56:30.289Z,35.87
2018-03-07T03:58:57.909Z,32.43
2018-03-07T04:01:25.469Z,35.27
2018-03-07T04:03:53.061Z,37.90
2018-03-07T04:06:20.824Z,35.60
2018-03-07T04:08:48.407Z,32.07
2018-03-07T04:11:16.188Z,30.93
2018-03-07T04:13:43.805Z,33.87
2018-03-07T04:16:11.398Z,36.00
2018-03-07T04:18:38.993Z,30.30
2018-03-07T04:21:06.634Z,35.60
2018-03-07T04:23:34.231Z,30.43
2018-03-07T04:26:01.870Z,31.33
2018-03-07T04:28:29.449Z,28.30
2018-03-07T04:30:57.004Z,31.10
2018-03-07T04:33:24.648Z,35.33
2018-03-07T04:35:52.230Z,31.13
2018-03-07T04:38:19.838Z,31.60
2018-03-07T04:40:47.471Z,34.90
2018-03-07T04:43:15.469Z,30.43
2018-03-07T04:45:43.057Z,30.80
2018-03-07T04:48:10.718Z,35.37
2018-03-07T04:50:38.277Z,36.50
2018-03-07T04:53:06.218Z,32.37
2018-03-07T04:55:33.878Z,33.20
2018-03-07T04:58:01.448Z,35.37
2018-03-07T05:00:29.091Z,30.63
2018-03-07T05:02:56.678Z,36.67
2018-03-07T05:05:24.234Z,36.83
2018-03-07T05:07:52.197Z,38.70
2018-03-07T05:10:19.833Z,39.70
2018-03-07T05:12:47.416Z,39.40
2018-03-07T05:15:15.384Z,37.93
2018-03-07T05:17:42.962Z,43.57
2018-03-07T05:20:10.614Z,36.27
2018-03-07T05:22:38.208Z,41.43
2018-03-07T05:25:05.800Z,37.83
2018-03-07T05:27:33.404Z,41.50
2018-03-07T05:30:01.011Z,42.33
2018-03-07T05:32:28.599Z,42.63
2018-03-07T05:34:56.285Z,45.37
2018-03-07T05:37:23.900Z,44.00
2018-03-07T05:39:51.569Z,45.60
2018-03-07T05:42:19.137Z,46.97
2018-03-07T05:44:46.860Z,42.70
2018-03-07T05:47:14.650Z,45.63
2018-03-07T05:49:42.360Z,45.00
2018-03-07T05:52:10.006Z,46.37
2018-03-07T05:54:37.630Z,49.30
2018-03-07T05:57:05.242Z,45.60
2018-03-07T05:59:32.847Z,49.30
2018-03-07T06:02:00.465Z,48.17
2018-03-07T06:04:28.203Z,45.17
2018-03-07T06:06:55.978Z,45.30
2018-03-07T06:09:23.636Z,46.20
2018-03-07T06:11:51.277Z,44.07
2018-03-07T06:14:18.982Z,45.50
2018-03-07T06:16:46.667Z,45.27
2018-03-07T06:19:14.373Z,44.97
2018-03-07T06:21:42.036Z,49.50
2018-03-07T06:24:09.668Z,46.27
2018-03-07T06:26:37.248Z,47.53
2018-03-07T06:29:05.040Z,46.17
2018-03-07T06:31:32.653Z,46.57
2018-03-07T06:34:00.581Z,47.27
2018-03-07T06:36:28.219Z,49.40
2018-03-07T06:38:56.003Z,49.37
2018-03-07T06:41:23.817Z,46.93
2018-03-07T06:43:51.476Z,48.30
2018-03-07T06:46:19.141Z,46.90
2018-03-07T06:48:46.786Z,48.53
2018-03-07T06:51:14.402Z,49.43
2018-03-07T06:53:42.211Z,51.40
2018-03-07T06:56:10.054Z,46.87
2018-03-07T06:58:38.037Z,48.80
2018-03-07T07:01:05.992Z,48.00
2018-03-07T07:03:33.563Z,48.40
2018-03-07T07:06:01.135Z,45.80
2018-03-07T07:08:28.747Z,44.30
2018-03-07T07:10:56.368Z,42.73
2018-03-07T07:13:23.952Z,44.20
2018-03-07T07:15:51.519Z,44.20
2018-03-07T07:18:19.119Z,43.80
2018-03-07T07:20:46.700Z,43.83
2018-03-07T07:23:14.408Z,45.00
2018-03-07T07:25:42.005Z,43.90
2018-03-07T07:28:09.588Z,45.37
2018-03-07T07:30:37.236Z,43.90
2018-03-07T07:33:04.948Z,39.70
2018-03-07T07:35:32.525Z,42.37
2018-03-07T07:38:00.166Z,45.33
2018-03-07T07:40:27.771Z,42.53
2018-03-07T07:42:55.344Z,42.60
2018-03-07T07:45:22.984Z,41.00
2018-03-07T07:47:50.561Z,41.00
2018-03-07T07:50:18.150Z,42.50
2018-03-07T07:52:45.798Z,41.13
2018-03-07T07:55:13.380Z,38.93
2018-03-07T07:57:40.955Z,36.40
2018-03-07T08:00:08.606Z,40.27
2018-03-07T08:02:36.160Z,43.83
2018-03-07T08:05:03.730Z,41.73
2018-03-07T08:07:31.374Z,41.00
2018-03-07T08:09:59.261Z,39.90
2018-03-07T08:12:26.883Z,41.40
2018-03-07T08:14:54.553Z,39.97
2018-03-07T08:17:22.117Z,42.27
2018-03-07T08:19:49.714Z,36.90
2018-03-07T08:22:17.345Z,39.77
2018-03-07T08:24:44.920Z,42.17
2018-03-07T08:27:12.536Z,36.80
2018-03-07T08:29:40.093Z,39.83
2018-03-07T08:32:07.652Z,35.67
2018-03-07T08:34:35.289Z,42.23
2018-03-07T08:37:02.861Z,45.27
2018-03-07T08:39:30.442Z,38.57
2018-03-07T08:41:58.405Z,38.27
2018-03-07T08:44:25.966Z,38.17
2018-03-07T08:46:53.544Z,37.40
2018-03-07T08:49:21.124Z,40.23
2018-03-07T08:51:48.736Z,42.10
2018-03-07T08:54:16.396Z,35.00
2018-03-07T08:56:44.013Z,37.80
2018-03-07T08:59:11.944Z,37.97
2018-03-07T09:01:39.558Z,38.87
2018-03-07T09:04:07.147Z,36.80
2018-03-07T09:06:34.743Z,40.63
2018-03-07T09:09:02.388Z,37.27
2018-03-07T09:11:30.194Z,35.70
2018-03-07T09:13:57.827Z,35.30
2018-03-07T09:16:25.448Z,39.10
2018-03-07T09:18:53.029Z,36.33
2018-03-07T09:21:20.608Z,35.83
2018-03-07T09:23:48.266Z,36.30
2018-03-07T09:26:15.838Z,35.53
2018-03-07T09:28:43.435Z,69.37
2018-03-07T09:31:11.050Z,44.90
2018-03-07T09:33:38.633Z,34.90
2018-03-07T09:36:06.217Z,83.97
2018-03-07T09:38:33.824Z,40.17
2018-03-07T09:41:01.424Z,36.30
2018-03-07T09:43:29.012Z,37.00
2018-03-07T09:45:56.718Z,46.67
2018-03-07T09:48:24.343Z,49.27
2018-03-07T09:50:52.133Z,47.93
2018-03-07T09:53:19.799Z,39.27
2018-03-07T09:55:47.445Z,65.30
2018-03-07T09:58:15.264Z,62.13
2018-03-07T10:00:43.298Z,40.37
2018-03-07T10:03:10.856Z,38.10
2018-03-07T10:05:38.438Z,40.87
2018-03-07T10:08:06.046Z,41.40
2018-03-07T10:10:33.621Z,43.20
2018-03-07T10:13:01.280Z,44.70
2018-03-07T10:15:28.905Z,45.70
2018-03-07T10:17:56.477Z,44.47
2018-03-07T10:20:24.123Z,43.60
2018-03-07T10:22:51.771Z,44.00
2018-03-07T10:25:19.605Z,46.20
2018-03-07T10:27:47.263Z,52.47
2018-03-07T10:30:14.851Z,60.10
2018-03-07T10:32:42.703Z,59.47
2018-03-07T10:35:10.366Z,55.20
2018-03-07T10:37:37.967Z,54.53
2018-03-07T10:40:05.586Z,53.47
2018-03-07T10:42:33.187Z,53.10
2018-03-07T10:45:00.821Z,50.97
2018-03-07T10:47:28.389Z,53.63
2018-03-07T10:49:55.974Z,31.27
2018-03-07T10:52:23.610Z,28.70
2018-03-07T10:54:51.200Z,32.00
2018-03-07T10:57:19.022Z,31.20
2018-03-07T10:59:46.982Z,28.33
2018-03-07T11:02:14.641Z,33.23
2018-03-07T11:04:42.316Z,24.80
2018-03-07T11:07:10.138Z,24.47
2018-03-07T11:09:37.702Z,22.03
2018-03-07T11:12:05.350Z,29.67
2018-03-07T11:14:32.965Z,32.97
2018-03-07T11:17:00.556Z,33.53
2018-03-07T11:19:28.205Z,28.83
2018-03-07T11:21:55.834Z,26.70
2018-03-07T11:24:23.426Z,27.00
2018-03-07T11:26:51.020Z,26.00
2018-03-07T11:29:18.680Z,26.90
2018-03-07T11:31:46.269Z,30.40
2018-03-07T11:34:13.906Z,27.30
2018-03-07T11:36:41.512Z,33.57
2018-03-07T11:39:09.483Z,32.67
2018-03-07T11:41:37.066Z,29.77
2018-03-07T11:44:05.019Z,27.97
2018-03-07T11:46:32.634Z,33.03
2018-03-07T11:49:00.370Z,34.33
2018-03-07T11:51:39.496Z,31.67
2018-03-07T11:54:07.063Z,26.47
2018-03-07T11:56:34.653Z,35.53
2018-03-07T11:59:02.303Z,26.37
2018-03-07T12:01:29.922Z,32.80
2018-03-07T12:03:57.516Z,18.23
2018-03-07T12:06:25.157Z,10.50
2018-03-07T12:08:52.747Z,7.50
2018-03-07T12:11:20.345Z,15.27
2018-03-07T12:13:47.975Z,4.50
2018-03-07T12:16:15.592Z,9.47
2018-03-07T12:18:43.156Z,8.87
2018-03-07T12:21:10.862Z,10.07
2018-03-07T12:23:38.429Z,12.50
2018-03-07T12:26:06.003Z,11.03
2018-03-07T12:28:33.688Z,10.97
2018-03-07T12:31:01.259Z,14.70
2018-03-07T12:33:28.827Z,13.50
2018-03-07T12:35:56.447Z,10.57
2018-03-07T12:38:24.044Z,12.13
2018-03-07T12:40:51.640Z,9.97
2018-03-07T12:43:19.230Z,9.03
2018-03-07T12:45:47.216Z,9.33
2018-03-07T12:48:14.797Z,15.80
2018-03-07T12:50:42.644Z,16.20
2018-03-07T12:53:10.261Z,17.40
2018-03-07T12:55:41.424Z,19.47
2018-03-07T12:58:09.015Z,16.80
2018-03-07T13:00:36.633Z,17.20
2018-03-07T13:03:04.217Z,16.20
2018-03-07T13:05:31.855Z,15.80
2018-03-07T13:07:59.433Z,16.30
2018-03-07T13:10:27.048Z,15.37
2018-03-07T13:12:54.649Z,14.07
2018-03-07T13:15:22.213Z,14.27
2018-03-07T13:17:49.909Z,13.40
2018-03-07T13:20:17.523Z,13.03
2018-03-07T13:22:45.150Z,12.93
2018-03-07T13:25:12.732Z,12.27
2018-03-07T13:27:40.290Z,12.53
2018-03-07T13:30:07.887Z,11.13
2018-03-07T13:32:35.502Z,9.90
2018-03-07T13:35:03.329Z,11.60
2018-03-07T13:37:30.914Z,13.20
2018-03-07T13:39:58.862Z,13.30
2018-03-07T13:42:26.439Z,14.03
2018-03-07T13:44:54.062Z,16.70
2018-03-07T13:47:21.621Z,17.83
2018-03-07T13:49:49.235Z,19.10
2018-03-07T13:52:17.080Z,19.77
2018-03-07T13:54:44.668Z,18.20
2018-03-07T13:57:12.497Z,18.10
2018-03-07T13:59:40.154Z,19.53
2018-03-07T14:02:07.721Z,18.57
2018-03-07T14:04:35.303Z,19.00
2018-03-07T14:07:03.249Z,16.90
2018-03-07T14:09:30.828Z,16.17
2018-03-07T14:11:58.537Z,16.23
2018-03-07T14:14:26.123Z,16.10
2018-03-07T14:16:53.761Z,14.17
2018-03-07T14:19:21.391Z,15.33
2018-03-07T14:21:48.974Z,15.80
2018-03-07T14:24:16.572Z,16.93
2018-03-07T14:26:44.140Z,17.47
2018-03-07T14:29:11.768Z,17.33
2018-03-07T14:31:39.342Z,41.93
2018-03-07T14:34:06.939Z,15.20
2018-03-07T14:36:34.530Z,12.93
2018-03-07T14:39:02.138Z,13.30
2018-03-07T14:41:29.763Z,13.70
2018-03-07T14:43:57.776Z,11.83
2018-03-07T14:46:25.366Z,11.17
2018-03-07T14:48:53.021Z,12.30
2018-03-07T14:51:20.595Z,12.90
2018-03-07T14:53:48.212Z,16.07
2018-03-07T14:56:16.193Z,14.87
2018-03-07T14:58:43.767Z,16.13
2018-03-07T15:01:11.452Z,14.80
2018-03-07T15:03:39.054Z,14.70
2018-03-07T15:06:06.690Z,16.23
2018-03-07T15:08:34.380Z,14.40
2018-03-07T15:11:01.965Z,15.80
2018-03-07T15:13:29.769Z,14.10
2018-03-07T15:15:57.348Z,16.67
2018-03-07T15:18:24.950Z,18.63
2018-03-07T15:20:52.508Z,17.90
2018-03-07T15:23:20.152Z,24.60
2018-03-07T15:25:47.728Z,28.30
2018-03-07T15:28:15.351Z,29.33
2018-03-07T15:30:43.011Z,31.00
2018-03-07T15:33:11.022Z,28.87
2018-03-07T15:35:45.365Z,31.63
2018-03-07T15:38:12.973Z,28.40
2018-03-07T15:40:40.551Z,33.30
2018-03-07T15:43:08.127Z,32.53
2018-03-07T15:45:35.774Z,34.90
2018-03-07T15:48:03.350Z,35.50
2018-03-07T15:50:30.907Z,35.00
2018-03-07T15:52:58.514Z,35.40
2018-03-07T15:55:26.083Z,34.63
2018-03-07T15:57:53.727Z,34.33
2018-03-07T16:00:21.775Z,35.20
2018-03-07T16:02:49.367Z,33.83
2018-03-07T16:05:17.028Z,35.30
2018-03-07T16:07:44.595Z,33.63
2018-03-07T16:10:12.180Z,35.30
2018-03-07T16:12:39.820Z,34.57
2018-03-07T16:15:07.441Z,37.80
2018-03-07T16:17:35.257Z,37.50
2018-03-07T16:20:03.061Z,40.83
2018-03-07T16:22:30.664Z,39.63
2018-03-07T16:24:58.286Z,45.40
2018-03-07T16:27:25.979Z,43.27
2018-03-07T16:29:53.588Z,46.20
2018-03-07T16:32:21.476Z,45.67
2018-03-07T16:34:49.084Z,46.00
2018-03-07T16:37:16.700Z,47.80
2018-03-07T16:39:44.770Z,48.03
2018-03-07T16:42:12.349Z,45.13
2018-03-07T16:44:39.972Z,44.93
2018-03-07T16:47:07.670Z,43.27
2018-03-07T16:49:35.733Z,44.73
2018-03-07T16:52:03.631Z,42.33
2018-03-07T16:54:31.265Z,42.90
2018-03-07T16:56:58.858Z,42.43
2018-03-07T16:59:27.369Z,41.43
2018-03-07T17:01:55.027Z,42.57
2018-03-07T17:04:23.035Z,41.67
2018-03-07T17:06:50.635Z,44.80
2018-03-07T17:09:18.305Z,41.97
2018-03-07T17:11:46.225Z,41.90
2018-03-07T17:14:13.812Z,41.80
2018-03-07T17:16:41.670Z,42.83
2018-03-07T17:19:09.229Z,43.63
2018-03-07T17:21:36.826Z,46.93
2018-03-07T17:24:04.490Z,46.43
2018-03-07T17:26:32.111Z,49.07
2018-03-07T17:28:59.680Z,49.20
2018-03-07T17:31:27.346Z,54.10
2018-03-07T17:33:54.943Z,50.43
2018-03-07T17:36:22.540Z,53.27
2018-03-07T17:38:50.186Z,50.67
2018-03-07T17:41:17.790Z,46.40
2018-03-07T17:43:45.433Z,43.10
2018-03-07T17:46:13.033Z,42.50
2018-03-07T17:48:40.675Z,39.07
2018-03-07T17:51:08.269Z,40.20
2018-03-07T17:53:35.868Z,37.77
2018-03-07T17:56:03.563Z,36.63
2018-03-07T17:58:31.227Z,39.60
2018-03-07T18:00:58.890Z,88.60
2018-03-07T18:03:26.463Z,44.97
2018-03-07T18:05:54.130Z,38.93
2018-03-07T18:08:21.786Z,39.80
2018-03-07T18:10:49.354Z,42.20
2018-03-07T18:13:16.944Z,38.20
2018-03-07T18:15:44.599Z,39.87
2018-03-07T18:18:12.175Z,44.50
2018-03-07T18:20:39.768Z,43.80
2018-03-07T18:23:07.626Z,41.60
2018-03-07T18:25:35.192Z,38.70
2018-03-07T18:28:02.838Z,48.43
2018-03-07T18:30:30.425Z,43.87
2018-03-07T18:32:57.997Z,43.50
2018-03-07T18:35:25.632Z,37.90
2018-03-07T18:37:53.490Z,38.43
2018-03-07T18:40:21.287Z,31.20
2018-03-07T18:42:48.949Z,30.20
2018-03-07T18:45:16.537Z,28.73
2018-03-07T18:47:44.109Z,27.60
2018-03-07T18:50:11.759Z,38.43
2018-03-07T18:52:39.337Z,32.57
2018-03-07T18:55:08.908Z,30.37
2018-03-07T18:57:36.556Z,31.30
2018-03-07T19:00:04.203Z,31.87
2018-03-07T19:02:31.815Z,55.70
2018-03-07T19:05:00.390Z,46.10
2018-03-07T19:07:27.950Z,51.33
2018-03-07T19:09:55.524Z,41.07
2018-03-07T19:12:23.168Z,41.70
2018-03-07T19:14:50.786Z,43.47
2018-03-07T19:17:18.641Z,37.80
2018-03-07T19:19:46.286Z,37.70
2018-03-07T19:22:13.888Z,37.50
2018-03-07T19:24:41.493Z,29.83
2018-03-07T19:27:09.121Z,30.70
2018-03-07T19:29:36.683Z,26.40
2018-03-07T19:32:04.630Z,27.07
2018-03-07T19:34:32.264Z,26.10
2018-03-07T19:36:59.867Z,27.10
2018-03-07T19:39:27.487Z,26.20
2018-03-07T19:41:55.110Z,33.27
2018-03-07T19:44:22.681Z,32.10
2018-03-07T19:46:50.589Z,32.00
2018-03-07T19:49:18.186Z,37.50
2018-03-07T19:51:45.772Z,38.80
2018-03-07T19:54:13.407Z,40.73
2018-03-07T19:56:41.198Z,42.30
2018-03-07T19:59:08.794Z,40.90
2018-03-07T20:01:36.424Z,35.73
2018-03-07T20:04:03.998Z,34.93
2018-03-07T20:06:31.588Z,29.50
2018-03-07T20:08:59.184Z,32.30
2018-03-07T20:11:26.822Z,32.73
2018-03-07T20:13:54.382Z,30.97
2018-03-07T20:16:21.945Z,30.20
2018-03-07T20:18:49.788Z,28.83
2018-03-07T20:21:17.391Z,27.80
2018-03-07T20:23:45.318Z,28.60
2018-03-07T20:26:12.968Z,28.73
2018-03-07T20:28:40.572Z,28.90
2018-03-07T20:31:08.170Z,27.17
2018-03-07T20:33:35.901Z,29.20
2018-03-07T20:36:03.485Z,29.00
2018-03-07T20:38:31.053Z,28.10
2018-03-07T20:40:58.681Z,27.53
2018-03-07T20:43:26.284Z,28.10
2018-03-07T20:45:53.884Z,28.57
2018-03-07T20:48:21.654Z,27.23
2018-03-07T20:50:49.257Z,29.80
2018-03-07T20:53:17.183Z,28.87
2018-03-07T20:55:44.810Z,26.50
2018-03-07T20:58:12.410Z,27.77
2018-03-07T21:00:40.019Z,27.57
2018-03-07T21:03:07.672Z,25.80
2018-03-07T21:05:35.276Z,25.60
2018-03-07T21:08:03.136Z,29.90
2018-03-07T21:10:30.846Z,29.37
2018-03-07T21:12:58.451Z,28.50
2018-03-07T21:15:26.177Z,29.37
2018-03-07T21:17:53.797Z,26.80
2018-03-07T21:20:21.516Z,30.40
2018-03-07T21:22:49.322Z,29.97
2018-03-07T21:25:16.956Z,29.00
2018-03-07T21:27:44.545Z,27.33
2018-03-07T21:30:12.128Z,30.23
2018-03-07T21:32:39.754Z,28.93
2018-03-07T21:35:07.307Z,30.40
2018-03-07T21:37:34.864Z,29.87
2018-03-07T21:40:02.458Z,32.80
2018-03-07T21:42:30.065Z,31.27
2018-03-07T21:44:57.662Z,30.87
2018-03-07T21:47:26.121Z,30.30
2018-03-07T21:49:53.685Z,32.60
2018-03-07T21:52:21.312Z,33.07
2018-03-07T21:54:49.152Z,31.73
2018-03-07T21:57:16.725Z,33.20
2018-03-07T21:59:44.411Z,33.90
2018-03-07T22:02:12.076Z,32.60
2018-03-07T22:04:39.775Z,30.80
2018-03-07T22:07:07.390Z,33.70
2018-03-07T22:09:35.222Z,33.93
2018-03-07T22:12:02.793Z,34.07
2018-03-07T22:14:30.491Z,30.27
2018-03-07T22:16:58.079Z,33.67
2018-03-07T22:19:25.789Z,33.30
2018-03-07T22:21:53.512Z,31.87
2018-03-07T22:24:21.076Z,31.83
2018-03-07T22:26:48.943Z,30.27
2018-03-07T22:29:16.570Z,32.27
2018-03-07T22:31:44.157Z,32.00
2018-03-07T22:34:11.825Z,30.53
2018-03-07T22:36:39.414Z,32.00
2018-03-07T22:39:06.972Z,33.97
2018-03-07T22:41:34.820Z,33.53
2018-03-07T22:44:02.532Z,32.67
2018-03-07T22:46:30.159Z,30.70
2018-03-07T22:48:57.764Z,29.23
2018-03-07T22:51:25.425Z,30.27
2018-03-07T22:53:53.030Z,30.03
2018-03-07T22:56:21.155Z,29.30
2018-03-07T22:58:48.901Z,32.20
2018-03-07T23:01:16.541Z,29.93
2018-03-07T23:03:44.198Z,28.30
2018-03-07T23:06:11.749Z,26.63
2018-03-07T23:08:39.549Z,25.37
2018-03-07T23:11:07.166Z,25.10
2018-03-07T23:13:34.822Z,26.17
2018-03-07T23:16:02.638Z,25.57
2018-03-07T23:18:30.348Z,24.03
2018-03-07T23:20:58.014Z,25.03
2018-03-07T23:23:25.638Z,24.97
2018-03-07T23:25:53.197Z,25.00
2018-03-07T23:28:20.867Z,23.27
2018-03-07T23:30:48.481Z,23.40
2018-03-07T23:33:16.072Z,25.87
2018-03-07T23:35:43.655Z,25.07
2018-03-07T23:38:11.565Z,25.33
2018-03-07T23:40:39.183Z,24.80
2018-03-07T23:43:06.786Z,24.97
2018-03-07T23:45:34.493Z,23.47
2018-03-07T23:48:02.056Z,22.20
2018-03-07T23:50:29.676Z,22.90
2018-03-07T23:52:57.306Z,22.00
2018-03-07T23:55:24.998Z,22.17
2018-03-07T23:57:52.693Z,22.40
